Station Historical Data
Daily Summary for May 24, 2011 Units:  English    Metric   Both
« Previous Day
Next Day »
Daily Weekly Monthly Yearly Custom
  High: Low: Average:
Temperature: 84.4 °F 68.2 °F 75.5 °F
Dew Point: 71.2 °F 66.1 °F 68.4 °F
Humidity: 94% 63% 80%
Wind Speed: 13.0mph 0.0mph 4.6mph
Wind Gust: 17.0mph - -
Wind- - South
Pressure: 29.91 in 29.81 in -
Precipitation: 0.02 in    
Historical Graphs
 
 
Tabular Data for May 24, 2011
Time Temperature Dew Point Pressure Wind Wind Speed Wind Gust Humidity Rainfall Rate (Hourly) Conditions
00:00 71.9 °F 67.5 °F 29.86 in SE 3.0 mph 4.0 mph 86% 0.00 in
00:05 71.8 °F 67.4 °F 29.87 in SSE 2.0 mph 3.0 mph 86% 0.00 in
00:10 71.6 °F 67.2 °F 29.87 in SSE 3.0 mph 3.0 mph 86% 0.00 in
00:15 71.6 °F 67.2 °F 29.88 in WSW 2.0 mph 3.0 mph 86% 0.00 in
00:21 71.6 °F 67.2 °F 29.88 in West 3.0 mph 3.0 mph 86% 0.00 in
00:26 71.3 °F 67.2 °F 29.88 in WNW 3.0 mph 4.0 mph 87% 0.00 in
00:31 71.0 °F 67.3 °F 29.88 in WNW 2.0 mph 4.0 mph 88% 0.00 in
00:34 70.9 °F 67.2 °F 29.88 in WNW 3.0 mph 4.0 mph 88% 0.00 in
00:36 70.9 °F 67.2 °F 29.88 in SW 2.0 mph 3.0 mph 88% 0.00 in
00:39 71.0 °F 67.3 °F 29.87 in Calm   2.0 mph 88% 0.00 in
00:41 71.0 °F 67.3 °F 29.87 in SW 3.0 mph 3.0 mph 88% 0.00 in
00:46 71.0 °F 67.3 °F 29.87 in SSW 1.0 mph 3.0 mph 88% 0.00 in
00:51 70.7 °F 67.0 °F 29.88 in SW 1.0 mph 1.0 mph 88% 0.00 in
00:52 70.7 °F 67.3 °F 29.88 in WSW 1.0 mph 2.0 mph 89% 0.00 in
00:56 70.8 °F 67.1 °F 29.88 in SW 1.0 mph 3.0 mph 88% 0.00 in
00:58 70.7 °F 67.0 °F 29.88 in Calm   3.0 mph 88% 0.00 in
01:01 70.7 °F 67.3 °F 29.88 in Calm   1.0 mph 89% 0.00 in
01:06 70.6 °F 67.2 °F 29.88 in WSW 1.0 mph 1.0 mph 89% 0.00 in
01:11 70.6 °F 67.2 °F 29.87 in Calm     89% 0.00 in
01:12 70.5 °F 67.1 °F 29.87 in Calm     89% 0.00 in
01:17 70.4 °F 67.0 °F 29.87 in SSW 1.0 mph 1.0 mph 89% 0.00 in
01:22 70.3 °F 67.2 °F 29.87 in SW 1.0 mph 1.0 mph 90% 0.00 in
01:27 70.2 °F 67.1 °F 29.86 in South 1.0 mph 1.0 mph 90% 0.00 in
01:32 70.1 °F 67.0 °F 29.86 in SE 2.0 mph 2.0 mph 90% 0.00 in
01:37 70.0 °F 66.9 °F 29.85 in SE 1.0 mph 2.0 mph 90% 0.00 in
01:42 69.7 °F 66.6 °F 29.85 in SE 1.0 mph 2.0 mph 90% 0.00 in
01:47 69.7 °F 67.0 °F 29.85 in Calm   1.0 mph 91% 0.00 in
01:52 69.4 °F 66.7 °F 29.86 in SE 1.0 mph 1.0 mph 91% 0.00 in
01:53 69.4 °F 66.7 °F 29.86 in SE 1.0 mph 1.0 mph 91% 0.00 in
01:57 69.2 °F 66.8 °F 29.86 in Calm     92% 0.00 in
01:58 69.2 °F 66.8 °F 29.86 in Calm     92% 0.00 in
02:03 69.0 °F 66.6 °F 29.86 in Calm     92% 0.00 in
02:08 69.3 °F 66.9 °F 29.86 in Calm   1.0 mph 92% 0.00 in
02:13 69.5 °F 67.1 °F 29.86 in Calm     92% 0.00 in
02:18 69.4 °F 67.0 °F 29.86 in Calm     92% 0.00 in
02:23 69.3 °F 66.9 °F 29.86 in North 1.0 mph 2.0 mph 92% 0.00 in
02:24 69.3 °F 66.9 °F 29.86 in North 2.0 mph 2.0 mph 92% 0.00 in
02:29 68.9 °F 66.5 °F 29.86 in North 1.0 mph 1.0 mph 92% 0.00 in
02:30 68.9 °F 66.5 °F 29.86 in Calm   1.0 mph 92% 0.00 in
02:34 68.5 °F 66.4 °F 29.86 in Calm     93% 0.00 in
02:35 68.6 °F 66.5 °F 29.86 in Calm     93% 0.00 in
02:37 68.5 °F 66.4 °F 29.86 in Calm     93% 0.00 in
02:40 68.2 °F 66.1 °F 29.86 in Calm     93% 0.00 in
02:45 68.3 °F 66.5 °F 29.86 in ESE 1.0 mph 1.0 mph 94% 0.00 in
02:50 68.5 °F 66.7 °F 29.85 in Calm   1.0 mph 94% 0.00 in
02:55 69.0 °F 66.9 °F 29.85 in SE 2.0 mph 2.0 mph 93% 0.00 in
02:56 69.0 °F 66.9 °F 29.85 in SE 2.0 mph 2.0 mph 93% 0.00 in
02:58 69.3 °F 67.2 °F 29.85 in SE 2.0 mph 3.0 mph 93% 0.00 in
03:03 69.5 °F 67.4 °F 29.85 in SE 1.0 mph 2.0 mph 93% 0.00 in
03:08 69.6 °F 67.5 °F 29.85 in SE 2.0 mph 2.0 mph 93% 0.00 in
03:09 69.6 °F 67.5 °F 29.85 in SE 2.0 mph 2.0 mph 93% 0.00 in
03:14 69.7 °F 67.6 °F 29.85 in South 2.0 mph 2.0 mph 93% 0.00 in
03:19 70.1 °F 67.7 °F 29.85 in SE 1.0 mph 2.0 mph 92% 0.00 in
03:24 70.0 °F 67.6 °F 29.85 in SE 2.0 mph 2.0 mph 92% 0.00 in
03:29 70.2 °F 67.8 °F 29.84 in ESE 3.0 mph 4.0 mph 92% 0.00 in
03:34 70.3 °F 67.6 °F 29.84 in ESE 5.0 mph 6.0 mph 91% 0.00 in
03:37 70.4 °F 67.7 °F 29.84 in ESE 5.0 mph 6.0 mph 91% 0.00 in
03:40 70.4 °F 67.7 °F 29.84 in ESE 3.0 mph 5.0 mph 91% 0.00 in
03:42 70.5 °F 67.8 °F 29.84 in SE 3.0 mph 4.0 mph 91% 0.00 in
03:47 70.6 °F 67.8 °F 29.84 in ESE 1.0 mph 2.0 mph 91% 0.00 in
03:52 70.6 °F 67.8 °F 29.84 in SE 2.0 mph 2.0 mph 91% 0.00 in
03:55 70.5 °F 67.8 °F 29.85 in Calm   2.0 mph 91% 0.00 in
03:57 70.5 °F 67.8 °F 29.85 in SSE 1.0 mph 2.0 mph 91% 0.00 in
04:00 70.5 °F 67.8 °F 29.85 in SSW 1.0 mph 2.0 mph 91% 0.00 in
04:02 70.5 °F 67.8 °F 29.86 in SW 1.0 mph 2.0 mph 91% 0.00 in
04:07 70.4 °F 67.7 °F 29.85 in Calm     91% 0.00 in
04:08 70.4 °F 67.7 °F 29.85 in Calm     91% 0.00 in
04:13 70.4 °F 67.7 °F 29.85 in South 2.0 mph 2.0 mph 91% 0.00 in
04:18 70.2 °F 67.4 °F 29.85 in SE 2.0 mph 3.0 mph 91% 0.00 in
04:23 70.1 °F 67.7 °F 29.85 in SE 3.0 mph 4.0 mph 92% 0.00 in
04:28 70.2 °F 67.4 °F 29.85 in ESE 5.0 mph 8.0 mph 91% 0.00 in
04:32 70.3 °F 67.6 °F 29.85 in ESE 6.0 mph 6.0 mph 91% 0.00 in
04:33 70.3 °F 67.6 °F 29.85 in ESE 6.0 mph 7.0 mph 91% 0.00 in
04:35 70.4 °F 67.7 °F 29.86 in SE 5.0 mph 7.0 mph 91% 0.00 in
04:37 70.4 °F 67.7 °F 29.86 in SE 4.0 mph 6.0 mph 91% 0.00 in
04:40 70.4 °F 67.7 °F 29.87 in SE 3.0 mph 5.0 mph 91% 0.00 in
04:45 70.2 °F 67.4 °F 29.87 in SSE 3.0 mph 3.0 mph 91% 0.00 in
04:50 70.0 °F 67.3 °F 29.87 in SSE 2.0 mph 4.0 mph 91% 0.00 in
04:51 70.0 °F 67.3 °F 29.87 in SSE 3.0 mph 4.0 mph 91% 0.00 in
04:55 69.9 °F 67.2 °F 29.87 in SSE 4.0 mph 5.0 mph 91% 0.00 in
04:56 69.9 °F 67.2 °F 29.87 in South 5.0 mph 5.0 mph 91% 0.00 in
04:57 70.0 °F 67.3 °F 29.87 in SSE 3.0 mph 6.0 mph 91% 0.00 in
05:01 70.1 °F 67.4 °F 29.87 in SSW 3.0 mph 6.0 mph 91% 0.00 in
05:06 70.2 °F 67.1 °F 29.87 in SSE 3.0 mph 5.0 mph 90% 0.00 in
05:11 70.3 °F 67.2 °F 29.87 in SSE 2.0 mph 5.0 mph 90% 0.00 in
05:16 70.2 °F 67.1 °F 29.87 in SSE 4.0 mph 7.0 mph 90% 0.00 in
05:21 70.2 °F 67.1 °F 29.87 in South 4.0 mph 7.0 mph 90% 0.00 in
05:26 70.2 °F 67.1 °F 29.87 in SSE 4.0 mph 7.0 mph 90% 0.00 in
05:27 70.2 °F 67.1 °F 29.87 in SSE 3.0 mph 7.0 mph 90% 0.00 in
05:32 70.3 °F 67.2 °F 29.87 in SSW 3.0 mph 6.0 mph 90% 0.00 in
05:34 70.3 °F 66.9 °F 29.87 in SSE 4.0 mph 6.0 mph 89% 0.00 in
05:37 70.2 °F 66.8 °F 29.87 in South 3.0 mph 6.0 mph 89% 0.00 in
05:42 70.2 °F 66.8 °F 29.87 in South 4.0 mph 8.0 mph 89% 0.00 in
05:47 70.2 °F 66.8 °F 29.87 in SSE 2.0 mph 5.0 mph 89% 0.00 in
05:52 70.1 °F 66.7 °F 29.87 in SSE 3.0 mph 5.0 mph 89% 0.00 in
05:53 70.2 °F 66.8 °F 29.87 in SSE 4.0 mph 5.0 mph 89% 0.00 in
05:58 70.2 °F 66.8 °F 29.88 in South 2.0 mph 4.0 mph 89% 0.00 in
06:03 70.2 °F 66.8 °F 29.88 in SSW 2.0 mph 6.0 mph 89% 0.00 in
06:05 70.3 °F 66.6 °F 29.88 in South 2.0 mph 5.0 mph 88% 0.00 in
06:10 70.4 °F 66.7 °F 29.88 in South 3.0 mph 6.0 mph 88% 0.00 in
06:11 70.4 °F 66.7 °F 29.88 in SSW 3.0 mph 6.0 mph 88% 0.00 in
06:16 70.5 °F 66.8 °F 29.89 in SSE 2.0 mph 7.0 mph 88% 0.00 in
06:21 70.6 °F 66.9 °F 29.89 in SSE 2.0 mph 6.0 mph 88% 0.00 in
06:26 70.6 °F 66.9 °F 29.89 in South 3.0 mph 6.0 mph 88% 0.00 in
06:28 70.6 °F 66.9 °F 29.89 in SW 4.0 mph 4.0 mph 88% 0.00 in
06:29 70.6 °F 66.9 °F 29.89 in South 2.0 mph 4.0 mph 88% 0.00 in
06:32 70.6 °F 66.9 °F 29.90 in SSE 4.0 mph 7.0 mph 88% 0.00 in
06:34 70.6 °F 66.6 °F 29.90 in SSE 4.0 mph 7.0 mph 87% 0.00 in
06:35 70.6 °F 66.9 °F 29.90 in SE 4.0 mph 7.0 mph 88% 0.00 in
06:36 70.6 °F 66.9 °F 29.90 in SSE 4.0 mph 6.0 mph 88% 0.00 in
06:39 70.6 °F 66.9 °F 29.90 in South 4.0 mph 6.0 mph 88% 0.00 in
06:44 70.6 °F 66.9 °F 29.90 in SE 4.0 mph 5.0 mph 88% 0.00 in
06:49 70.7 °F 67.0 °F 29.90 in South 7.0 mph 8.0 mph 88% 0.00 in
06:54 70.7 °F 66.3 °F 29.91 in SW 6.0 mph 9.0 mph 86% 0.00 in
06:55 70.7 °F 66.3 °F 29.91 in SW 6.0 mph 9.0 mph 86% 0.00 in
07:00 70.8 °F 66.1 °F 29.90 in SE 6.0 mph 11.0 mph 85% 0.00 in
07:05 70.8 °F 66.1 °F 29.90 in South 3.0 mph 6.0 mph 85% 0.00 in
07:10 70.8 °F 66.4 °F 29.90 in SSW 5.0 mph 7.0 mph 86% 0.00 in
07:15 70.7 °F 67.0 °F 29.90 in SSW 3.0 mph 7.0 mph 88% 0.00 in
07:20 70.6 °F 67.2 °F 29.90 in SE 3.0 mph 7.0 mph 89% 0.00 in
07:21 70.6 °F 67.2 °F 29.90 in SSE 1.0 mph 7.0 mph 89% 0.00 in
07:26 70.5 °F 67.4 °F 29.90 in SSW 5.0 mph 5.0 mph 90% 0.00 in
07:31 70.5 °F 67.4 °F 29.90 in South 3.0 mph 4.0 mph 90% 0.00 in
07:32 70.6 °F 67.5 °F 29.90 in South 6.0 mph 6.0 mph 90% 0.00 in
07:37 70.7 °F 67.6 °F 29.90 in SSW 6.0 mph 7.0 mph 90% 0.00 in
07:42 70.7 °F 67.6 °F 29.90 in South 7.0 mph 7.0 mph 90% 0.00 in
07:47 70.7 °F 67.6 °F 29.89 in South 2.0 mph 5.0 mph 90% 0.00 in
07:52 70.8 °F 67.7 °F 29.89 in South 3.0 mph 6.0 mph 90% 0.00 in
07:55 70.8 °F 67.7 °F 29.89 in SSW 2.0 mph 7.0 mph 90% 0.00 in
07:57 70.9 °F 67.8 °F 29.88 in South 4.0 mph 5.0 mph 90% 0.00 in
08:02 70.9 °F 67.8 °F 29.88 in SSE 4.0 mph 5.0 mph 90% 0.00 in
08:07 70.9 °F 67.8 °F 29.87 in SSE 4.0 mph 5.0 mph 90% 0.00 in
08:12 70.9 °F 67.8 °F 29.87 in SSE 2.0 mph 6.0 mph 90% 0.00 in
08:17 70.8 °F 67.7 °F 29.87 in SE 6.0 mph 6.0 mph 90% 0.00 in
08:22 70.6 °F 67.8 °F 29.87 in SSE 2.0 mph 6.0 mph 91% 0.00 in
08:28 70.5 °F 67.8 °F 29.87 in SE 3.0 mph 7.0 mph 91% 0.00 in
08:29 70.4 °F 67.7 °F 29.87 in SE 4.0 mph 6.0 mph 91% 0.00 in
08:33 70.4 °F 67.7 °F 29.86 in SE 4.0 mph 6.0 mph 91% 0.00 in
08:34 70.4 °F 67.7 °F 29.86 in SSE 6.0 mph 6.0 mph 91% 0.00 in
08:35 70.3 °F 67.6 °F 29.86 in SSE 5.0 mph 8.0 mph 91% 0.00 in
08:39 70.4 °F 67.7 °F 29.86 in SE 8.0 mph 9.0 mph 91% 0.00 in
08:40 70.4 °F 67.7 °F 29.86 in SE 5.0 mph 8.0 mph 91% 0.00 in
08:46 70.6 °F 67.8 °F 29.85 in South 11.0 mph 11.0 mph 91% 0.00 in
08:51 70.8 °F 67.7 °F 29.85 in SE 8.0 mph 10.0 mph 90% 0.00 in
08:52 70.9 °F 67.8 °F 29.85 in SE 6.0 mph 8.0 mph 90% 0.00 in
08:57 71.1 °F 68.0 °F 29.84 in SE 7.0 mph 12.0 mph 90% 0.00 in
08:59 71.1 °F 68.0 °F 29.84 in SE 5.0 mph 11.0 mph 90% 0.00 in
09:04 71.2 °F 68.1 °F 29.84 in SSE 6.0 mph 7.0 mph 90% 0.00 in
09:10 71.2 °F 68.1 °F 29.86 in SE 6.0 mph 8.0 mph 90% 0.00 in
09:15 71.4 °F 68.3 °F 29.87 in SSW 5.0 mph 8.0 mph 90% 0.00 in
09:20 72.0 °F 68.6 °F 29.88 in SW 5.0 mph 7.0 mph 89% 0.00 in
09:25 72.4 °F 68.7 °F 29.87 in SSE 7.0 mph 10.0 mph 88% 0.00 in
09:26 72.4 °F 68.7 °F 29.87 in SSW 5.0 mph 10.0 mph 88% 0.00 in
09:28 72.4 °F 68.7 °F 29.88 in SE 7.0 mph 9.0 mph 88% 0.00 in
09:30 72.5 °F 69.1 °F 29.88 in SSW 7.0 mph 9.0 mph 89% 0.00 in
09:33 72.5 °F 68.8 °F 29.87 in SSE 8.0 mph 11.0 mph 88% 0.00 in
09:35 72.6 °F 68.8 °F 29.87 in SSW 12.0 mph 12.0 mph 88% 0.00 in
09:36 72.6 °F 68.8 °F 29.88 in South 10.0 mph 12.0 mph 88% 0.00 in
09:41 72.9 °F 68.8 °F 29.87 in SSW 5.0 mph 12.0 mph 87% 0.00 in
09:43 73.0 °F 68.9 °F 29.86 in SSW 6.0 mph 12.0 mph 87% 0.00 in
09:46 73.0 °F 69.2 °F 29.86 in SE 8.0 mph 10.0 mph 88% 0.00 in
09:51 73.3 °F 69.5 °F 29.86 in South 6.0 mph 12.0 mph 88% 0.00 in
09:54 73.5 °F 69.4 °F 29.86 in SE 11.0 mph 13.0 mph 87% 0.00 in
09:56 73.6 °F 69.8 °F 29.86 in SSE 6.0 mph 12.0 mph 88% 0.00 in
09:59 73.9 °F 69.8 °F 29.86 in South 7.0 mph 11.0 mph 87% 0.00 in
10:04 73.9 °F 69.8 °F 29.86 in SW 3.0 mph 8.0 mph 87% 0.00 in
10:09 74.0 °F 69.9 °F 29.87 in SSW 4.0 mph 12.0 mph 87% 0.00 in
10:14 74.2 °F 70.1 °F 29.88 in SW 8.0 mph 10.0 mph 87% 0.00 in
10:19 74.0 °F 69.9 °F 29.88 in SSW 9.0 mph 11.0 mph 87% 0.00 in
10:24 73.7 °F 69.6 °F 29.89 in SW 8.0 mph 12.0 mph 87% 0.00 in
10:29 73.6 °F 69.5 °F 29.89 in SSW 9.0 mph 10.0 mph 87% 0.00 in
10:30 73.6 °F 69.5 °F 29.89 in SSE 5.0 mph 10.0 mph 87% 0.00 in
10:31 73.6 °F 69.5 °F 29.89 in South 7.0 mph 10.0 mph 87% 0.00 in
10:36 73.7 °F 69.9 °F 29.89 in South 6.0 mph 8.0 mph 88% 0.00 in
10:37 73.7 °F 69.6 °F 29.89 in SSW 8.0 mph 8.0 mph 87% 0.00 in
10:41 74.1 °F 69.7 °F 29.88 in SSW 8.0 mph 12.0 mph 86% 0.00 in
10:46 74.4 °F 69.9 °F 29.89 in SSW 9.0 mph 10.0 mph 86% 0.00 in
10:52 74.6 °F 69.8 °F 29.88 in South 8.0 mph 15.0 mph 85% 0.00 in
10:57 74.8 °F 70.0 °F 29.88 in SSW 7.0 mph 15.0 mph 85% 0.00 in
10:58 74.9 °F 70.1 °F 29.88 in SE 8.0 mph 15.0 mph 85% 0.00 in
11:03 74.9 °F 69.7 °F 29.88 in SSE 9.0 mph 10.0 mph 84% 0.00 in
11:04 74.9 °F 69.7 °F 29.89 in SSE 5.0 mph 10.0 mph 84% 0.00 in
11:09 75.0 °F 70.2 °F 29.88 in SSW 7.0 mph 11.0 mph 85% 0.00 in
11:14 75.2 °F 70.0 °F 29.88 in SSE 5.0 mph 11.0 mph 84% 0.00 in
11:19 75.3 °F 70.1 °F 29.88 in SSW 4.0 mph 8.0 mph 84% 0.00 in
11:24 75.5 °F 70.3 °F 29.88 in SSW 3.0 mph 9.0 mph 84% 0.00 in
11:29 75.5 °F 70.3 °F 29.88 in SE 7.0 mph 12.0 mph 84% 0.00 in
11:34 75.4 °F 69.5 °F 29.88 in South 6.0 mph 9.0 mph 82% 0.00 in
11:35 75.4 °F 69.9 °F 29.88 in SW 8.0 mph 12.0 mph 83% 0.00 in
11:39 75.4 °F 69.9 °F 29.88 in SSW 4.0 mph 11.0 mph 83% 0.00 in
11:45 76.1 °F 70.6 °F 29.88 in South 6.0 mph 8.0 mph 83% 0.00 in
11:50 76.6 °F 70.0 °F 29.88 in SW 6.0 mph 12.0 mph 80% 0.00 in
11:55 76.5 °F 69.9 °F 29.88 in SSW 6.0 mph 12.0 mph 80% 0.00 in
11:59 76.6 °F 69.6 °F 29.89 in SSW 8.0 mph 13.0 mph 79% 0.00 in
12:00 76.6 °F 69.6 °F 29.89 in SSW 10.0 mph 14.0 mph 79% 0.00 in
12:05 76.8 °F 70.2 °F 29.88 in SSW 3.0 mph 11.0 mph 80% 0.00 in
12:10 77.4 °F 70.4 °F 29.88 in SSW 9.0 mph 13.0 mph 79% 0.00 in
12:11 77.4 °F 70.0 °F 29.88 in South 7.0 mph 13.0 mph 78% 0.00 in
12:16 77.9 °F 70.1 °F 29.88 in SW 5.0 mph 15.0 mph 77% 0.00 in
12:21 78.4 °F 69.8 °F 29.88 in South 6.0 mph 14.0 mph 75% 0.00 in
12:26 78.7 °F 69.3 °F 29.88 in SW 6.0 mph 12.0 mph 73% 0.00 in
12:31 78.7 °F 69.3 °F 29.88 in South 7.0 mph 12.0 mph 73% 0.00 in
12:32 78.7 °F 69.3 °F 29.88 in SSE 6.0 mph 11.0 mph 73% 0.00 in
12:36 78.9 °F 70.3 °F 29.88 in SE 9.0 mph 9.0 mph 75% 0.00 in
12:37 78.9 °F 70.3 °F 29.88 in SSW 12.0 mph 16.0 mph 75% 0.00 in
12:42 78.8 °F 69.4 °F 29.88 in South 11.0 mph 11.0 mph 73% 0.00 in
12:43 78.8 °F 68.6 °F 29.88 in SSE 5.0 mph 11.0 mph 71% 0.00 in
12:47 78.9 °F 69.5 °F 29.88 in SW 9.0 mph 12.0 mph 73% 0.00 in
12:52 79.3 °F 70.3 °F 29.88 in SW 6.0 mph 12.0 mph 74% 0.00 in
12:53 79.4 °F 70.4 °F 29.88 in SSW 8.0 mph 10.0 mph 74% 0.00 in
12:56 79.7 °F 69.9 °F 29.88 in SSE 10.0 mph 15.0 mph 72% 0.00 in
12:58 79.8 °F 70.0 °F 29.88 in SW 7.0 mph 12.0 mph 72% 0.00 in
13:03 80.0 °F 69.8 °F 29.87 in SSW 9.0 mph 12.0 mph 71% 0.00 in
13:05 80.1 °F 70.7 °F 29.88 in SE 10.0 mph 12.0 mph 73% 0.00 in
13:10 80.1 °F 69.0 °F 29.87 in South 8.0 mph 13.0 mph 69% 0.00 in
13:15 80.2 °F 69.5 °F 29.88 in SE 9.0 mph 13.0 mph 70% 0.00 in
13:20 80.5 °F 69.8 °F 29.87 in SW 10.0 mph 13.0 mph 70% 0.00 in
13:25 81.3 °F 69.7 °F 29.88 in South 7.0 mph 12.0 mph 68% 0.00 in
13:26 81.2 °F 69.6 °F 29.88 in South 11.0 mph 12.0 mph 68% 0.00 in
13:30 80.8 °F 68.4 °F 29.88 in SW 8.0 mph 16.0 mph 66% 0.00 in
13:31 80.8 °F 68.8 °F 29.88 in South 6.0 mph 16.0 mph 67% 0.00 in
13:35 81.0 °F 69.4 °F 29.88 in SSE 5.0 mph 9.0 mph 68% 0.00 in
13:36 81.0 °F 69.9 °F 29.88 in South 11.0 mph 15.0 mph 69% 0.00 in
13:41 80.9 °F 70.2 °F 29.88 in South 10.0 mph 13.0 mph 70% 0.00 in
13:47 81.0 °F 69.9 °F 29.87 in SSE 7.0 mph 12.0 mph 69% 0.00 in
13:52 81.0 °F 69.4 °F 29.88 in SSE 6.0 mph 11.0 mph 68% 0.00 in
13:57 80.9 °F 68.9 °F 29.88 in SW 8.0 mph 12.0 mph 67% 0.00 in
13:58 80.8 °F 68.4 °F 29.88 in South 4.0 mph 12.0 mph 66% 0.00 in
14:03 81.1 °F 70.0 °F 29.87 in South 9.0 mph 9.0 mph 69% 0.00 in
14:08 81.1 °F 69.6 °F 29.87 in SW 12.0 mph 12.0 mph 68% 0.00 in
14:09 81.1 °F 69.1 °F 29.87 in SW 11.0 mph 12.0 mph 67% 0.00 in
14:14 81.5 °F 69.5 °F 29.87 in SSW 9.0 mph 13.0 mph 67% 0.00 in
14:19 81.9 °F 69.4 °F 29.87 in SE 10.0 mph 11.0 mph 66% 0.00 in
14:24 81.7 °F 69.7 °F 29.86 in South 7.0 mph 17.0 mph 67% 0.00 in
14:29 81.8 °F 69.8 °F 29.87 in South 5.0 mph 12.0 mph 67% 0.00 in
14:31 81.9 °F 69.9 °F 29.86 in WSW 4.0 mph 9.0 mph 67% 0.00 in
14:34 81.8 °F 69.3 °F 29.86 in SSW 7.0 mph 11.0 mph 66% 0.00 in
14:36 81.7 °F 70.1 °F 29.86 in South 5.0 mph 10.0 mph 68% 0.00 in
14:40 81.6 °F 69.2 °F 29.86 in South 6.0 mph 10.0 mph 66% 0.00 in
14:45 81.7 °F 69.2 °F 29.87 in SSE 8.0 mph 12.0 mph 66% 0.00 in
14:50 81.5 °F 69.1 °F 29.87 in South 6.0 mph 9.0 mph 66% 0.00 in
14:55 81.7 °F 70.6 °F 29.86 in SSE 5.0 mph 8.0 mph 69% 0.00 in
14:56 81.8 °F 70.2 °F 29.87 in South 3.0 mph 8.0 mph 68% 0.00 in
14:57 81.9 °F 70.3 °F 29.87 in SSE 7.0 mph 9.0 mph 68% 0.00 in
15:00 81.9 °F 70.3 °F 29.87 in South 9.0 mph 10.0 mph 68% 0.00 in
15:01 82.0 °F 69.5 °F 29.86 in South 9.0 mph 9.0 mph 66% 0.00 in
15:06 82.1 °F 69.6 °F 29.86 in SW 8.0 mph 11.0 mph 66% 0.00 in
15:11 82.7 °F 70.2 °F 29.86 in SW 5.0 mph 10.0 mph 66% 0.00 in
15:16 82.8 °F 69.8 °F 29.86 in SW 11.0 mph 11.0 mph 65% 0.00 in
15:21 82.6 °F 69.7 °F 29.85 in SSW 10.0 mph 14.0 mph 65% 0.00 in
15:22 82.5 °F 69.1 °F 29.85 in South 10.0 mph 14.0 mph 64% 0.00 in
15:27 82.8 °F 70.3 °F 29.86 in SW 8.0 mph 12.0 mph 66% 0.00 in
15:32 83.2 °F 70.2 °F 29.86 in SSW 9.0 mph 11.0 mph 65% 0.00 in
15:33 83.2 °F 69.8 °F 29.86 in SE 5.0 mph 11.0 mph 64% 0.00 in
15:38 83.2 °F 70.2 °F 29.85 in SSW 6.0 mph 13.0 mph 65% 0.00 in
15:43 83.0 °F 70.0 °F 29.85 in SW 7.0 mph 12.0 mph 65% 0.00 in
15:44 83.0 °F 70.0 °F 29.85 in SW 8.0 mph 12.0 mph 65% 0.00 in
15:49 83.2 °F 70.2 °F 29.85 in SSW 7.0 mph 11.0 mph 65% 0.00 in
15:54 83.7 °F 71.1 °F 29.85 in SSE 8.0 mph 9.0 mph 66% 0.00 in
15:58 83.5 °F 70.5 °F 29.85 in SW 6.0 mph 10.0 mph 65% 0.00 in
15:59 83.5 °F 70.9 °F 29.85 in SW 10.0 mph 10.0 mph 66% 0.00 in
16:04 83.0 °F 70.0 °F 29.85 in South 4.0 mph 13.0 mph 65% 0.00 in
16:09 83.1 °F 70.1 °F 29.85 in SSW 7.0 mph 10.0 mph 65% 0.00 in
16:14 83.1 °F 70.1 °F 29.85 in SW 10.0 mph 12.0 mph 65% 0.00 in
16:19 83.4 °F 69.5 °F 29.85 in SW 8.0 mph 16.0 mph 63% 0.00 in
16:24 83.5 °F 70.1 °F 29.85 in SSE 5.0 mph 12.0 mph 64% 0.00 in
16:29 83.6 °F 69.7 °F 29.84 in SW 5.0 mph 12.0 mph 63% 0.00 in
16:30 83.6 °F 70.6 °F 29.84 in SSW 13.0 mph 13.0 mph 65% 0.00 in
16:34 83.7 °F 70.2 °F 29.84 in SW 7.0 mph 12.0 mph 64% 0.00 in
16:36 83.5 °F 69.6 °F 29.84 in SSW 7.0 mph 15.0 mph 63% 0.00 in
16:40 83.3 °F 69.9 °F 29.84 in SSW 6.0 mph 12.0 mph 64% 0.00 in
16:45 83.5 °F 70.1 °F 29.84 in SSW 8.0 mph 13.0 mph 64% 0.00 in
16:50 83.7 °F 71.1 °F 29.84 in SW 9.0 mph 11.0 mph 66% 0.00 in
16:52 83.8 °F 70.8 °F 29.84 in SSW 4.0 mph 12.0 mph 65% 0.00 in
16:56 83.9 °F 70.9 °F 29.83 in South 10.0 mph 15.0 mph 65% 0.00 in
16:58 83.6 °F 70.1 °F 29.84 in SW 12.0 mph 13.0 mph 64% 0.00 in
17:01 83.5 °F 69.6 °F 29.84 in SSE 9.0 mph 17.0 mph 63% 0.00 in
17:06 83.8 °F 70.3 °F 29.83 in South 6.0 mph 10.0 mph 64% 0.00 in
17:11 84.2 °F 70.7 °F 29.83 in South 5.0 mph 11.0 mph 64% 0.00 in
17:16 84.2 °F 70.7 °F 29.83 in South 4.0 mph 9.0 mph 64% 0.00 in
17:21 84.4 °F 70.4 °F 29.83 in SSE 6.0 mph 11.0 mph 63% 0.00 in
17:26 84.4 °F 70.4 °F 29.83 in SW 3.0 mph 13.0 mph 63% 0.00 in
17:31 84.4 °F 70.9 °F 29.83 in SSW 7.0 mph 10.0 mph 64% 0.00 in
17:32 84.4 °F 70.9 °F 29.83 in SE 4.0 mph 10.0 mph 64% 0.00 in
17:37 83.4 °F 70.4 °F 29.83 in SW 5.0 mph 11.0 mph 65% 0.00 in
17:42 83.6 °F 69.7 °F 29.83 in SSW 6.0 mph 15.0 mph 63% 0.00 in
17:47 83.8 °F 70.8 °F 29.83 in SW 8.0 mph 11.0 mph 65% 0.00 in
17:52 83.5 °F 70.9 °F 29.83 in SSE 6.0 mph 11.0 mph 66% 0.00 in
17:53 83.6 °F 70.6 °F 29.83 in South 7.0 mph 11.0 mph 65% 0.00 in
17:57 83.9 °F 70.9 °F 29.83 in South 6.0 mph 11.0 mph 65% 0.00 in
17:58 83.9 °F 70.0 °F 29.82 in South 6.0 mph 11.0 mph 63% 0.00 in
18:02 83.8 °F 70.3 °F 29.82 in WSW 9.0 mph 12.0 mph 64% 0.00 in
18:07 84.0 °F 71.0 °F 29.82 in SSE 5.0 mph 7.0 mph 65% 0.00 in
18:12 84.0 °F 70.1 °F 29.82 in SSE 7.0 mph 9.0 mph 63% 0.00 in
18:18 83.7 °F 70.2 °F 29.82 in SW 4.0 mph 10.0 mph 64% 0.00 in
18:23 83.1 °F 70.1 °F 29.82 in SW 3.0 mph 9.0 mph 65% 0.00 in
18:28 82.7 °F 70.2 °F 29.82 in SW 5.0 mph 7.0 mph 66% 0.00 in
18:32 82.7 °F 70.6 °F 29.82 in South 4.0 mph 8.0 mph 67% 0.00 in
18:33 82.8 °F 70.3 °F 29.82 in SW 4.0 mph 8.0 mph 66% 0.00 in
18:37 83.2 °F 70.7 °F 29.82 in SW 5.0 mph 8.0 mph 66% 0.00 in
18:38 83.3 °F 71.2 °F 29.82 in South 5.0 mph 7.0 mph 67% 0.00 in
18:43 83.7 °F 70.7 °F 29.82 in ESE 6.0 mph 8.0 mph 65% 0.00 in
18:48 83.8 °F 70.8 °F 29.82 in SW 6.0 mph 8.0 mph 65% 0.00 in
18:54 83.7 °F 70.2 °F 29.82 in SSE 8.0 mph 8.0 mph 64% 0.00 in
18:57 83.5 °F 70.5 °F 29.82 in SSW 4.0 mph 8.0 mph 65% 0.00 in
18:59 83.2 °F 69.8 °F 29.82 in SW 5.0 mph 9.0 mph 64% 0.00 in
19:04 82.5 °F 70.0 °F 29.82 in SW 3.0 mph 8.0 mph 66% 0.00 in
19:09 82.1 °F 70.1 °F 29.82 in SW 2.0 mph 5.0 mph 67% 0.00 in
19:14 81.7 °F 69.7 °F 29.82 in SSW 2.0 mph 5.0 mph 67% 0.00 in
19:19 81.5 °F 69.9 °F 29.82 in SSE 2.0 mph 5.0 mph 68% 0.00 in
19:24 81.4 °F 69.8 °F 29.81 in SW 6.0 mph 6.0 mph 68% 0.00 in
19:29 81.3 °F 69.7 °F 29.81 in SSW 2.0 mph 4.0 mph 68% 0.00 in
19:34 81.1 °F 70.0 °F 29.82 in South 1.0 mph 4.0 mph 69% 0.00 in
19:37 81.0 °F 69.9 °F 29.82 in South 2.0 mph 4.0 mph 69% 0.00 in
19:42 80.8 °F 69.7 °F 29.82 in South 2.0 mph 6.0 mph 69% 0.00 in
19:47 80.5 °F 69.8 °F 29.82 in SW 5.0 mph 5.0 mph 70% 0.00 in
19:52 80.3 °F 69.6 °F 29.82 in South 3.0 mph 4.0 mph 70% 0.00 in
19:53 80.3 °F 69.6 °F 29.82 in SSE 3.0 mph 4.0 mph 70% 0.00 in
19:54 80.2 °F 69.5 °F 29.82 in SSW 2.0 mph 4.0 mph 70% 0.00 in
19:58 80.1 °F 69.9 °F 29.82 in South 2.0 mph 4.0 mph 71% 0.00 in
19:59 80.0 °F 69.8 °F 29.82 in SSE 2.0 mph 3.0 mph 71% 0.00 in
20:03 79.7 °F 70.3 °F 29.81 in SE 1.0 mph 2.0 mph 73% 0.00 in
20:08 79.3 °F 70.3 °F 29.82 in SE 1.0 mph 2.0 mph 74% 0.00 in
20:10 79.1 °F 70.1 °F 29.82 in SE 2.0 mph 2.0 mph 74% 0.00 in
20:13 78.9 °F 69.9 °F 29.82 in SSE 2.0 mph 3.0 mph 74% 0.00 in
20:18 78.8 °F 69.8 °F 29.82 in SE 2.0 mph 3.0 mph 74% 0.00 in
20:23 78.6 °F 69.6 °F 29.82 in SSE 2.0 mph 3.0 mph 74% 0.00 in
20:28 78.5 °F 69.5 °F 29.82 in SE 2.0 mph 3.0 mph 74% 0.00 in
20:29 78.5 °F 69.5 °F 29.82 in SE 3.0 mph 3.0 mph 74% 0.00 in
20:34 78.4 °F 69.4 °F 29.82 in SSE 3.0 mph 3.0 mph 74% 0.00 in
20:35 78.3 °F 69.3 °F 29.82 in SE 3.0 mph 3.0 mph 74% 0.00 in
20:39 78.2 °F 68.8 °F 29.82 in SE 3.0 mph 4.0 mph 73% 0.00 in
20:44 77.9 °F 68.9 °F 29.82 in SSE 3.0 mph 4.0 mph 74% 0.00 in
20:49 77.7 °F 68.8 °F 29.82 in SE 2.0 mph 4.0 mph 74% 0.00 in
20:54 77.5 °F 68.6 °F 29.82 in SE 2.0 mph 5.0 mph 74% 0.00 in
20:55 77.4 °F 68.5 °F 29.82 in SSE 3.0 mph 4.0 mph 74% 0.00 in
20:59 77.1 °F 68.2 °F 29.82 in SE 2.0 mph 5.0 mph 74% 0.00 in
21:04 76.7 °F 67.8 °F 29.82 in SSE 3.0 mph 3.0 mph 74% 0.00 in
21:09 76.5 °F 67.6 °F 29.82 in SSE 2.0 mph 4.0 mph 74% 0.00 in
21:14 76.3 °F 67.8 °F 29.82 in SSE 3.0 mph 4.0 mph 75% 0.00 in
21:19 76.0 °F 67.5 °F 29.82 in SE 3.0 mph 4.0 mph 75% 0.00 in
21:20 76.0 °F 67.5 °F 29.82 in SSE 3.0 mph 4.0 mph 75% 0.00 in
21:25 76.0 °F 67.1 °F 29.82 in SE 5.0 mph 6.0 mph 74% 0.00 in
21:26 76.1 °F 67.2 °F 29.82 in SE 5.0 mph 6.0 mph 74% 0.00 in
21:27 76.1 °F 67.2 °F 29.82 in SE 5.0 mph 6.0 mph 74% 0.00 in
21:32 76.3 °F 67.4 °F 29.82 in ESE 4.0 mph 6.0 mph 74% 0.00 in
21:33 76.3 °F 67.0 °F 29.82 in SE 5.0 mph 6.0 mph 73% 0.00 in
21:38 76.5 °F 67.2 °F 29.82 in SE 3.0 mph 6.0 mph 73% 0.00 in
21:43 76.3 °F 67.0 °F 29.82 in SE 5.0 mph 6.0 mph 73% 0.00 in
21:48 76.1 °F 67.2 °F 29.83 in SE 4.0 mph 6.0 mph 74% 0.00 in
21:53 75.9 °F 67.0 °F 29.83 in SE 3.0 mph 5.0 mph 74% 0.00 in
21:54 75.8 °F 66.9 °F 29.83 in SSE 2.0 mph 5.0 mph 74% 0.00 in
21:58 75.7 °F 66.8 °F 29.83 in SE 4.0 mph 4.0 mph 74% 0.00 in
22:03 75.4 °F 66.9 °F 29.83 in SSE 3.0 mph 4.0 mph 75% 0.00 in
22:08 75.2 °F 66.7 °F 29.83 in SE 4.0 mph 4.0 mph 75% 0.00 in
22:09 75.2 °F 66.7 °F 29.83 in SE 4.0 mph 4.0 mph 75% 0.00 in
22:14 74.9 °F 66.8 °F 29.84 in SSE 3.0 mph 5.0 mph 76% 0.00 in
22:19 74.7 °F 66.6 °F 29.84 in SSE 3.0 mph 5.0 mph 76% 0.00 in
22:24 74.6 °F 66.5 °F 29.84 in SE 3.0 mph 4.0 mph 76% 0.00 in
22:25 74.6 °F 66.5 °F 29.84 in SSE 3.0 mph 5.0 mph 76% 0.00 in
22:29 74.6 °F 66.5 °F 29.84 in SE 8.0 mph 8.0 mph 76% 0.00 in
22:34 74.8 °F 66.7 °F 29.84 in SSE 5.0 mph 5.0 mph 76% 0.00 in
22:35 74.8 °F 66.7 °F 29.84 in SE 3.0 mph 5.0 mph 76% 0.00 in
22:39 74.8 °F 66.7 °F 29.84 in SSE 3.0 mph 5.0 mph 76% 0.00 in
22:44 74.7 °F 66.6 °F 29.84 in SSE 3.0 mph 4.0 mph 76% 0.00 in
22:49 74.4 °F 66.3 °F 29.84 in SSE 4.0 mph 4.0 mph 76% 0.00 in
22:54 74.2 °F 66.5 °F 29.84 in SSE 3.0 mph 5.0 mph 77% 0.00 in
22:55 74.2 °F 66.5 °F 29.84 in SE 3.0 mph 4.0 mph 77% 0.00 in
22:58 74.0 °F 66.3 °F 29.85 in SE 4.0 mph 4.0 mph 77% 0.00 in
22:59 74.0 °F 66.3 °F 29.84 in SE 5.0 mph 5.0 mph 77% 0.00 in
23:04 74.1 °F 66.4 °F 29.85 in South 4.0 mph 5.0 mph 77% 0.00 in
23:09 74.0 °F 66.3 °F 29.84 in SE 4.0 mph 5.0 mph 77% 0.00 in
23:14 74.1 °F 66.4 °F 29.84 in SE 4.0 mph 6.0 mph 77% 0.00 in
23:15 74.1 °F 66.4 °F 29.84 in ESE 4.0 mph 6.0 mph 77% 0.00 in
23:20 74.4 °F 66.7 °F 29.84 in SE 3.0 mph 6.0 mph 77% 0.00 in
23:25 74.6 °F 66.5 °F 29.84 in SE 4.0 mph 6.0 mph 76% 0.00 in
23:26 74.5 °F 66.8 °F 29.84 in SSE 6.0 mph 6.0 mph 77% 0.00 in
23:30 74.5 °F 66.8 °F 29.84 in SSE 4.0 mph 5.0 mph 77% 0.00 in
23:31 74.4 °F 66.7 °F 29.84 in SE 3.0 mph 5.0 mph 77% 0.00 in
23:32 74.4 °F 66.7 °F 29.84 in SSE 3.0 mph 5.0 mph 77% 0.00 in
23:34 74.3 °F 66.6 °F 29.84 in SSE 4.0 mph 6.0 mph 77% 0.00 in
23:35 74.2 °F 66.5 °F 29.84 in SE 5.0 mph 6.0 mph 77% 0.00 in
23:39 74.2 °F 66.9 °F 29.84 in SE 5.0 mph 6.0 mph 78% 0.00 in
23:44 74.2 °F 66.9 °F 29.84 in SE 6.0 mph 6.0 mph 78% 0.00 in
23:49 74.1 °F 66.8 °F 29.83 in ESE 5.0 mph 5.0 mph 78% 0.00 in
23:54 74.3 °F 67.0 °F 29.83 in SE 5.0 mph 7.0 mph 78% 0.00 in
23:58 74.2 °F 66.9 °F 29.84 in SE 3.0 mph 5.0 mph 78% 0.00 in
23:59 74.1 °F 66.8 °F 29.84 in SE 4.0 mph 5.0 mph 78% 0.00 in
Compliments of Weather Underground